Time;durP1;ratioP1;P1;durP2;ratioP2;P2;SDS_P1;SDS_P2;PMS_P1;PMS_P2;Temp;Humidity;BMP_temperature;BMP_pressure;BME280_temperature;BME280_humidity;BME280_pressure;Samples;Min_cycle;Max_cycle;Signal;HPM_P1;HPM_P2
2022/08/31 00:04:01;;;;;;;0.2;0.2;;;;;;;19.0;100.0;101830;;;;
2022/08/31 00:05:00;;;;;;;0.2;0.2;;;;;;;19.0;100.0;101820;;;;
2022/08/31 00:06:01;;;;;;;0.2;0.2;;;;;;;19.0;100.0;101820;;;;
2022/08/31 00:07:00;;;;;;;0.2;0.2;;;;;;;19.0;100.0;101830;;;;
2022/08/31 00:08:00;;;;;;;0.2;0.2;;;;;;;19.0;100.0;101830;;;;
2022/08/31 00:09:00;;;;;;;0.2;0.2;;;;;;;18.9;100.0;101830;;;;
2022/08/31 00:10:02;;;;;;;0.2;0.2;;;;;;;18.9;100.0;101830;;;;
2022/08/31 00:11:00;;;;;;;0.2;0.2;;;;;;;19.0;100.0;101820;;;;
2022/08/31 00:12:00;;;;;;;0.2;0.2;;;;;;;19.0;100.0;101820;;;;
2022/08/31 00:13:00;;;;;;;0.2;0.2;;;;;;;18.9;100.0;101830;;;;
2022/08/31 00:14:01;;;;;;;0.2;0.2;;;;;;;18.9;100.0;101830;;;;
2022/08/31 00:15:00;;;;;;;0.2;0.2;;;;;;;18.9;100.0;101830;;;;
2022/08/31 00:16:00;;;;;;;0.2;0.2;;;;;;;18.9;100.0;101830;;;;
2022/08/31 00:17:00;;;;;;;0.2;0.2;;;;;;;18.9;100.0;101830;;;;
2022/08/31 00:18:00;;;;;;;0.2;0.2;;;;;;;18.9;100.0;101830;;;;
2022/08/31 00:19:00;;;;;;;0.2;0.2;;;;;;;18.9;100.0;101830;;;;
2022/08/31 00:20:00;;;;;;;0.2;0.2;;;;;;;18.9;100.0;101830;;;;
2022/08/31 00:21:00;;;;;;;0.2;0.2;;;;;;;18.9;100.0;101830;;;;
2022/08/31 00:22:00;;;;;;;0.2;0.2;;;;;;;18.9;100.0;101830;;;;
2022/08/31 00:23:02;;;;;;;0.2;0.2;;;;;;;18.8;100.0;101830;;;;
2022/08/31 00:24:00;;;;;;;0.2;0.2;;;;;;;18.8;100.0;101830;;;;
2022/08/31 00:25:00;;;;;;;0.2;0.2;;;;;;;18.8;100.0;101830;;;;
2022/08/31 00:26:00;;;;;;;0.2;0.2;;;;;;;18.8;100.0;101830;;;;
2022/08/31 00:27:00;;;;;;;0.2;0.2;;;;;;;18.8;100.0;101830;;;;
2022/08/31 00:28:00;;;;;;;0.2;0.2;;;;;;;18.8;100.0;101830;;;;
2022/08/31 00:29:00;;;;;;;0.2;0.2;;;;;;;18.8;100.0;101830;;;;
2022/08/31 00:30:00;;;;;;;0.2;0.2;;;;;;;18.8;100.0;101830;;;;
2022/08/31 00:31:00;;;;;;;0.2;0.2;;;;;;;18.7;100.0;101840;;;;
2022/08/31 00:32:00;;;;;;;0.2;0.2;;;;;;;18.7;100.0;101840;;;;
2022/08/31 00:33:00;;;;;;;0.2;0.2;;;;;;;18.7;100.0;101840;;;;
2022/08/31 00:34:00;;;;;;;0.2;0.2;;;;;;;18.7;100.0;101840;;;;
2022/08/31 00:35:00;;;;;;;0.2;0.2;;;;;;;18.7;100.0;101830;;;;
2022/08/31 00:36:00;;;;;;;0.2;0.2;;;;;;;18.7;100.0;101830;;;;
2022/08/31 00:37:00;;;;;;;0.2;0.2;;;;;;;18.6;100.0;101830;;;;
2022/08/31 00:38:00;;;;;;;0.2;0.2;;;;;;;18.6;100.0;101830;;;;
2022/08/31 00:39:00;;;;;;;0.2;0.2;;;;;;;18.5;100.0;101830;;;;
2022/08/31 00:40:00;;;;;;;0.2;0.2;;;;;;;18.5;100.0;101830;;;;
2022/08/31 00:41:00;;;;;;;0.5;0.5;;;;;;;18.5;100.0;101830;;;;
2022/08/31 00:42:00;;;;;;;0.5;0.5;;;;;;;18.5;100.0;101830;;;;
2022/08/31 00:43:00;;;;;;;0.5;0.5;;;;;;;18.5;100.0;101840;;;;
2022/08/31 00:44:02;;;;;;;0.5;0.5;;;;;;;18.5;100.0;101840;;;;
2022/08/31 00:45:00;;;;;;;0.5;0.5;;;;;;;18.5;100.0;101830;;;;
2022/08/31 00:46:00;;;;;;;0.5;0.5;;;;;;;18.5;100.0;101830;;;;
2022/08/31 00:47:00;;;;;;;0.5;0.5;;;;;;;18.4;100.0;101830;;;;
2022/08/31 00:48:00;;;;;;;0.5;0.5;;;;;;;18.4;100.0;101830;;;;
2022/08/31 00:49:03;;;;;;;0.5;0.5;;;;;;;18.3;100.0;101830;;;;
2022/08/31 00:50:01;;;;;;;0.5;0.5;;;;;;;18.3;100.0;101830;;;;
2022/08/31 00:51:00;;;;;;;0.5;0.5;;;;;;;18.4;100.0;101830;;;;
2022/08/31 00:52:04;;;;;;;0.5;0.5;;;;;;;18.4;100.0;101830;;;;
2022/08/31 00:53:00;;;;;;;0.5;0.5;;;;;;;18.5;100.0;101830;;;;
2022/08/31 00:54:00;;;;;;;0.5;0.5;;;;;;;18.5;100.0;101830;;;;
2022/08/31 00:55:08;;;;;;;0.5;0.5;;;;;;;18.4;100.0;101830;;;;
2022/08/31 00:56:00;;;;;;;0.5;0.5;;;;;;;18.4;100.0;101830;;;;
2022/08/31 00:57:00;;;;;;;0.5;0.5;;;;;;;18.4;100.0;101830;;;;
2022/08/31 00:58:02;;;;;;;0.5;0.5;;;;;;;18.4;100.0;101830;;;;
2022/08/31 00:59:00;;;;;;;0.5;0.5;;;;;;;18.4;100.0;101830;;;;
2022/08/31 01:00:05;;;;;;;0.5;0.5;;;;;;;18.4;100.0;101830;;;;
2022/08/31 01:01:00;;;;;;;0.3;0.3;;;;;;;18.4;100.0;101830;;;;
2022/08/31 01:02:00;;;;;;;0.3;0.3;;;;;;;18.4;100.0;101830;;;;
2022/08/31 01:03:01;;;;;;;0.3;0.3;;;;;;;18.2;100.0;101830;;;;
2022/08/31 01:04:00;;;;;;;0.3;0.3;;;;;;;18.2;100.0;101830;;;;
2022/08/31 01:05:00;;;;;;;0.3;0.3;;;;;;;18.2;100.0;101830;;;;
2022/08/31 01:06:01;;;;;;;0.3;0.3;;;;;;;18.2;100.0;101830;;;;
2022/08/31 01:07:01;;;;;;;0.3;0.3;;;;;;;18.1;100.0;101830;;;;
2022/08/31 01:08:00;;;;;;;0.3;0.3;;;;;;;18.1;100.0;101830;;;;
2022/08/31 01:09:01;;;;;;;0.3;0.3;;;;;;;18.2;100.0;101830;;;;
2022/08/31 01:10:00;;;;;;;0.3;0.3;;;;;;;18.2;100.0;101830;;;;
2022/08/31 01:11:00;;;;;;;0.3;0.3;;;;;;;18.2;100.0;101830;;;;
2022/08/31 01:12:00;;;;;;;0.3;0.3;;;;;;;18.2;100.0;101830;;;;
2022/08/31 01:13:01;;;;;;;0.3;0.3;;;;;;;18.1;100.0;101830;;;;
2022/08/31 01:14:00;;;;;;;0.3;0.3;;;;;;;18.1;100.0;101830;;;;
2022/08/31 01:15:01;;;;;;;0.3;0.3;;;;;;;18.1;100.0;101830;;;;
2022/08/31 01:16:02;;;;;;;0.3;0.3;;;;;;;18.1;100.0;101830;;;;
2022/08/31 01:17:00;;;;;;;0.3;0.3;;;;;;;18.1;100.0;101820;;;;
2022/08/31 01:18:01;;;;;;;0.3;0.3;;;;;;;18.1;100.0;101820;;;;
2022/08/31 01:19:01;;;;;;;0.3;0.3;;;;;;;18.1;100.0;101820;;;;
2022/08/31 01:20:00;;;;;;;0.3;0.3;;;;;;;18.1;100.0;101820;;;;
2022/08/31 01:21:10;;;;;;;0.3;0.3;;;;;;;18.1;100.0;101820;;;;
2022/08/31 01:22:10;;;;;;;0.3;0.3;;;;;;;18.1;100.0;101820;;;;
2022/08/31 01:23:10;;;;;;;0.3;0.3;;;;;;;17.9;100.0;101820;;;;
2022/08/31 01:24:01;;;;;;;0.3;0.3;;;;;;;17.9;100.0;101820;;;;
2022/08/31 01:25:00;;;;;;;0.3;0.3;;;;;;;17.9;100.0;101820;;;;
2022/08/31 01:26:02;;;;;;;0.3;0.3;;;;;;;17.9;100.0;101820;;;;
2022/08/31 01:27:03;;;;;;;0.3;0.3;;;;;;;18.0;100.0;101820;;;;
2022/08/31 01:28:02;;;;;;;0.3;0.3;;;;;;;18.0;100.0;101820;;;;
2022/08/31 01:29:02;;;;;;;0.3;0.3;;;;;;;18.1;100.0;101820;;;;
2022/08/31 01:30:02;;;;;;;0.3;0.3;;;;;;;18.1;100.0;101820;;;;
2022/08/31 01:31:01;;;;;;;0.3;0.3;;;;;;;17.9;100.0;101820;;;;
2022/08/31 01:32:00;;;;;;;0.3;0.3;;;;;;;17.9;100.0;101820;;;;
2022/08/31 01:33:00;;;;;;;0.3;0.3;;;;;;;17.9;100.0;101820;;;;
2022/08/31 01:34:00;;;;;;;0.3;0.3;;;;;;;17.9;100.0;101820;;;;
2022/08/31 01:35:00;;;;;;;0.3;0.3;;;;;;;17.9;100.0;101820;;;;
2022/08/31 01:36:00;;;;;;;0.3;0.3;;;;;;;17.9;100.0;101820;;;;
2022/08/31 01:37:00;;;;;;;0.3;0.3;;;;;;;17.9;100.0;101820;;;;
2022/08/31 01:38:01;;;;;;;0.3;0.3;;;;;;;17.9;100.0;101820;;;;
2022/08/31 01:39:00;;;;;;;0.3;0.3;;;;;;;17.9;100.0;101820;;;;
2022/08/31 01:40:00;;;;;;;0.3;0.3;;;;;;;17.9;100.0;101820;;;;
2022/08/31 01:41:01;;;;;;;0.3;0.3;;;;;;;17.9;100.0;101820;;;;
2022/08/31 01:42:00;;;;;;;0.3;0.3;;;;;;;17.9;100.0;101820;;;;
2022/08/31 01:43:00;;;;;;;0.3;0.3;;;;;;;18.0;100.0;101820;;;;
2022/08/31 01:44:00;;;;;;;0.3;0.3;;;;;;;18.0;100.0;101820;;;;
2022/08/31 01:45:00;;;;;;;0.3;0.3;;;;;;;18.0;100.0;101830;;;;
2022/08/31 01:46:01;;;;;;;0.3;0.3;;;;;;;18.0;100.0;101830;;;;
2022/08/31 01:47:00;;;;;;;0.3;0.3;;;;;;;18.0;100.0;101830;;;;
2022/08/31 01:48:00;;;;;;;0.3;0.3;;;;;;;18.0;100.0;101830;;;;
2022/08/31 01:49:00;;;;;;;0.3;0.3;;;;;;;18.0;100.0;101830;;;;
2022/08/31 01:50:00;;;;;;;0.3;0.3;;;;;;;18.0;100.0;101830;;;;
2022/08/31 01:51:00;;;;;;;0.3;0.3;;;;;;;17.8;100.0;101830;;;;
2022/08/31 01:52:00;;;;;;;0.3;0.3;;;;;;;17.8;100.0;101830;;;;
2022/08/31 01:53:00;;;;;;;0.3;0.3;;;;;;;17.7;100.0;101830;;;;
2022/08/31 01:54:00;;;;;;;0.3;0.3;;;;;;;17.7;100.0;101830;;;;
2022/08/31 01:55:02;;;;;;;0.3;0.3;;;;;;;17.7;100.0;101830;;;;
2022/08/31 01:56:00;;;;;;;0.3;0.3;;;;;;;17.7;100.0;101830;;;;
2022/08/31 01:57:00;;;;;;;0.3;0.3;;;;;;;17.6;100.0;101820;;;;
2022/08/31 01:58:00;;;;;;;0.3;0.3;;;;;;;17.6;100.0;101820;;;;
2022/08/31 01:59:03;;;;;;;0.3;0.3;;;;;;;17.6;100.0;101830;;;;
2022/08/31 02:00:01;;;;;;;0.3;0.3;;;;;;;17.6;100.0;101830;;;;
2022/08/31 02:01:00;;;;;;;0.2;0.2;;;;;;;17.7;100.0;101820;;;;
2022/08/31 02:02:00;;;;;;;0.2;0.2;;;;;;;17.7;100.0;101820;;;;
2022/08/31 02:03:01;;;;;;;0.2;0.2;;;;;;;17.7;100.0;101830;;;;
2022/08/31 02:04:01;;;;;;;0.2;0.2;;;;;;;17.7;100.0;101830;;;;
2022/08/31 02:05:00;;;;;;;0.2;0.2;;;;;;;17.7;100.0;101830;;;;
2022/08/31 02:06:05;;;;;;;0.2;0.2;;;;;;;17.7;100.0;101830;;;;
2022/08/31 02:07:00;;;;;;;0.2;0.2;;;;;;;17.7;100.0;101830;;;;
2022/08/31 02:08:00;;;;;;;0.2;0.2;;;;;;;17.7;100.0;101830;;;;
2022/08/31 02:09:02;;;;;;;0.2;0.2;;;;;;;17.6;100.0;101830;;;;
2022/08/31 02:10:00;;;;;;;0.2;0.2;;;;;;;17.6;100.0;101830;;;;
2022/08/31 02:11:00;;;;;;;0.2;0.2;;;;;;;17.6;100.0;101830;;;;
2022/08/31 02:12:00;;;;;;;0.2;0.2;;;;;;;17.6;100.0;101830;;;;
2022/08/31 02:13:00;;;;;;;0.2;0.2;;;;;;;17.5;100.0;101830;;;;
2022/08/31 02:14:00;;;;;;;0.2;0.2;;;;;;;17.5;100.0;101830;;;;
2022/08/31 02:15:00;;;;;;;0.2;0.2;;;;;;;17.5;100.0;101830;;;;
2022/08/31 02:16:00;;;;;;;0.2;0.2;;;;;;;17.5;100.0;101830;;;;
2022/08/31 02:17:00;;;;;;;0.2;0.2;;;;;;;17.6;100.0;101830;;;;
2022/08/31 02:18:01;;;;;;;0.2;0.2;;;;;;;17.6;100.0;101830;;;;
2022/08/31 02:19:00;;;;;;;0.2;0.2;;;;;;;17.5;100.0;101830;;;;
2022/08/31 02:20:00;;;;;;;0.2;0.2;;;;;;;17.5;100.0;101830;;;;
2022/08/31 02:21:00;;;;;;;0.2;0.2;;;;;;;17.5;100.0;101830;;;;
2022/08/31 02:22:00;;;;;;;0.2;0.2;;;;;;;17.5;100.0;101830;;;;
2022/08/31 02:23:02;;;;;;;0.2;0.2;;;;;;;17.5;100.0;101830;;;;
2022/08/31 02:24:00;;;;;;;0.2;0.2;;;;;;;17.5;100.0;101830;;;;
2022/08/31 02:25:00;;;;;;;0.2;0.2;;;;;;;17.5;100.0;101830;;;;
2022/08/31 02:26:00;;;;;;;0.2;0.2;;;;;;;17.5;100.0;101830;;;;
2022/08/31 02:27:00;;;;;;;0.2;0.2;;;;;;;17.4;100.0;101830;;;;
2022/08/31 02:28:00;;;;;;;0.2;0.2;;;;;;;17.4;100.0;101830;;;;
2022/08/31 02:29:01;;;;;;;0.2;0.2;;;;;;;17.3;100.0;101830;;;;
2022/08/31 02:30:00;;;;;;;0.2;0.2;;;;;;;17.3;100.0;101830;;;;
2022/08/31 02:31:00;;;;;;;0.2;0.2;;;;;;;17.4;100.0;101830;;;;
2022/08/31 02:32:00;;;;;;;0.2;0.2;;;;;;;17.4;100.0;101830;;;;
2022/08/31 02:33:00;;;;;;;0.2;0.2;;;;;;;17.4;100.0;101830;;;;
2022/08/31 02:34:00;;;;;;;0.2;0.2;;;;;;;17.4;100.0;101830;;;;
2022/08/31 02:35:00;;;;;;;0.2;0.2;;;;;;;17.4;100.0;101830;;;;
2022/08/31 02:36:00;;;;;;;0.2;0.2;;;;;;;17.4;100.0;101830;;;;
2022/08/31 02:37:00;;;;;;;0.2;0.2;;;;;;;17.4;100.0;101840;;;;
2022/08/31 02:38:00;;;;;;;0.2;0.2;;;;;;;17.4;100.0;101840;;;;
2022/08/31 02:39:00;;;;;;;0.2;0.2;;;;;;;17.4;100.0;101840;;;;
2022/08/31 02:40:00;;;;;;;0.2;0.2;;;;;;;17.4;100.0;101840;;;;
2022/08/31 02:41:00;;;;;;;0.3;0.3;;;;;;;17.2;100.0;101840;;;;
2022/08/31 02:42:00;;;;;;;0.3;0.3;;;;;;;17.2;100.0;101840;;;;
2022/08/31 02:43:00;;;;;;;0.3;0.3;;;;;;;17.2;100.0;101840;;;;
2022/08/31 02:44:00;;;;;;;0.3;0.3;;;;;;;17.2;100.0;101840;;;;
2022/08/31 02:45:00;;;;;;;0.3;0.3;;;;;;;17.2;100.0;101840;;;;
2022/08/31 02:46:00;;;;;;;0.3;0.3;;;;;;;17.2;100.0;101840;;;;
2022/08/31 02:47:00;;;;;;;0.3;0.3;;;;;;;17.1;100.0;101840;;;;
2022/08/31 02:48:00;;;;;;;0.3;0.3;;;;;;;17.1;100.0;101840;;;;
2022/08/31 02:49:00;;;;;;;0.3;0.3;;;;;;;17.1;100.0;101840;;;;
2022/08/31 02:50:01;;;;;;;0.3;0.3;;;;;;;17.1;100.0;101840;;;;
2022/08/31 02:51:04;;;;;;;0.3;0.3;;;;;;;17.1;100.0;101840;;;;
2022/08/31 02:52:00;;;;;;;0.3;0.3;;;;;;;17.1;100.0;101840;;;;
2022/08/31 02:53:00;;;;;;;0.3;0.3;;;;;;;17.1;100.0;101840;;;;
2022/08/31 02:54:00;;;;;;;0.3;0.3;;;;;;;17.1;100.0;101840;;;;
2022/08/31 02:55:00;;;;;;;0.3;0.3;;;;;;;17.0;100.0;101840;;;;
2022/08/31 02:56:00;;;;;;;0.3;0.3;;;;;;;17.0;100.0;101840;;;;
2022/08/31 02:57:01;;;;;;;0.3;0.3;;;;;;;16.9;100.0;101840;;;;
2022/08/31 02:58:00;;;;;;;0.3;0.3;;;;;;;16.9;100.0;101840;;;;
2022/08/31 02:59:00;;;;;;;0.3;0.3;;;;;;;17.0;100.0;101840;;;;
2022/08/31 03:00:00;;;;;;;0.3;0.3;;;;;;;17.0;100.0;101840;;;;
2022/08/31 03:01:00;;;;;;;0.3;0.3;;;;;;;17.0;100.0;101840;;;;
2022/08/31 03:02:00;;;;;;;0.3;0.3;;;;;;;17.0;100.0;101840;;;;
2022/08/31 03:03:00;;;;;;;0.3;0.3;;;;;;;16.9;100.0;101850;;;;
2022/08/31 03:04:00;;;;;;;0.3;0.3;;;;;;;16.9;100.0;101850;;;;
2022/08/31 03:05:00;;;;;;;0.3;0.3;;;;;;;16.9;100.0;101840;;;;
2022/08/31 03:06:00;;;;;;;0.3;0.3;;;;;;;16.9;100.0;101840;;;;
2022/08/31 03:07:00;;;;;;;0.3;0.3;;;;;;;16.9;100.0;101840;;;;
2022/08/31 03:08:00;;;;;;;0.3;0.3;;;;;;;16.9;100.0;101840;;;;
2022/08/31 03:09:00;;;;;;;0.3;0.3;;;;;;;16.9;100.0;101840;;;;
2022/08/31 03:10:01;;;;;;;0.3;0.3;;;;;;;16.9;100.0;101840;;;;
2022/08/31 03:11:00;;;;;;;0.3;0.3;;;;;;;16.8;100.0;101840;;;;
2022/08/31 03:12:00;;;;;;;0.3;0.3;;;;;;;16.8;100.0;101840;;;;
2022/08/31 03:13:00;;;;;;;0.3;0.3;;;;;;;16.7;100.0;101840;;;;
2022/08/31 03:14:00;;;;;;;0.3;0.3;;;;;;;16.7;100.0;101840;;;;
2022/08/31 03:15:00;;;;;;;0.3;0.3;;;;;;;16.7;100.0;101840;;;;
2022/08/31 03:16:00;;;;;;;0.3;0.3;;;;;;;16.7;100.0;101840;;;;
2022/08/31 03:17:00;;;;;;;0.3;0.3;;;;;;;16.7;100.0;101840;;;;
2022/08/31 03:18:03;;;;;;;0.3;0.3;;;;;;;16.7;100.0;101840;;;;
2022/08/31 03:19:00;;;;;;;0.3;0.3;;;;;;;16.7;100.0;101840;;;;
2022/08/31 03:20:01;;;;;;;0.3;0.3;;;;;;;16.7;100.0;101840;;;;
2022/08/31 03:21:01;;;;;;;0.4;0.4;;;;;;;16.7;100.0;101840;;;;
2022/08/31 03:22:00;;;;;;;0.4;0.4;;;;;;;16.7;100.0;101840;;;;
2022/08/31 03:23:00;;;;;;;0.4;0.4;;;;;;;16.6;100.0;101840;;;;
2022/08/31 03:24:00;;;;;;;0.4;0.4;;;;;;;16.6;100.0;101840;;;;
2022/08/31 03:25:00;;;;;;;0.4;0.4;;;;;;;16.6;100.0;101840;;;;
2022/08/31 03:26:00;;;;;;;0.4;0.4;;;;;;;16.6;100.0;101840;;;;
2022/08/31 03:27:00;;;;;;;0.4;0.4;;;;;;;16.5;100.0;101840;;;;
2022/08/31 03:28:01;;;;;;;0.4;0.4;;;;;;;16.5;100.0;101840;;;;
2022/08/31 03:29:00;;;;;;;0.4;0.4;;;;;;;16.4;100.0;101830;;;;
2022/08/31 03:30:00;;;;;;;0.4;0.4;;;;;;;16.4;100.0;101830;;;;
2022/08/31 03:31:00;;;;;;;0.4;0.4;;;;;;;16.4;100.0;101840;;;;
2022/08/31 03:32:00;;;;;;;0.4;0.4;;;;;;;16.4;100.0;101840;;;;
2022/08/31 03:33:03;;;;;;;0.4;0.4;;;;;;;16.5;100.0;101830;;;;
2022/08/31 03:34:00;;;;;;;0.4;0.4;;;;;;;16.5;100.0;101830;;;;
2022/08/31 03:35:00;;;;;;;0.4;0.4;;;;;;;16.4;100.0;101840;;;;
2022/08/31 03:36:03;;;;;;;0.4;0.4;;;;;;;16.4;100.0;101840;;;;
2022/08/31 03:37:00;;;;;;;0.4;0.4;;;;;;;16.4;100.0;101830;;;;
2022/08/31 03:38:01;;;;;;;0.4;0.4;;;;;;;16.4;100.0;101830;;;;
2022/08/31 03:39:00;;;;;;;0.4;0.4;;;;;;;16.5;100.0;101840;;;;
2022/08/31 03:40:00;;;;;;;0.4;0.4;;;;;;;16.5;100.0;101840;;;;
2022/08/31 03:41:00;;;;;;;0.3;0.3;;;;;;;16.5;100.0;101830;;;;
2022/08/31 03:42:00;;;;;;;0.3;0.3;;;;;;;16.5;100.0;101830;;;;
2022/08/31 03:43:00;;;;;;;0.3;0.3;;;;;;;16.4;100.0;101830;;;;
2022/08/31 03:44:01;;;;;;;0.3;0.3;;;;;;;16.4;100.0;101830;;;;
2022/08/31 03:45:00;;;;;;;0.3;0.3;;;;;;;16.5;100.0;101840;;;;
2022/08/31 03:46:00;;;;;;;0.3;0.3;;;;;;;16.5;100.0;101840;;;;
2022/08/31 03:47:00;;;;;;;0.3;0.3;;;;;;;16.5;100.0;101840;;;;
2022/08/31 03:48:00;;;;;;;0.3;0.3;;;;;;;16.5;100.0;101840;;;;
2022/08/31 03:49:01;;;;;;;0.3;0.3;;;;;;;16.4;100.0;101830;;;;
2022/08/31 03:50:02;;;;;;;0.3;0.3;;;;;;;16.4;100.0;101830;;;;
2022/08/31 03:51:00;;;;;;;0.3;0.3;;;;;;;16.3;100.0;101840;;;;
2022/08/31 03:52:01;;;;;;;0.3;0.3;;;;;;;16.3;100.0;101840;;;;
2022/08/31 03:53:03;;;;;;;0.3;0.3;;;;;;;16.3;100.0;101840;;;;
2022/08/31 03:54:00;;;;;;;0.3;0.3;;;;;;;16.3;100.0;101840;;;;
2022/08/31 03:55:00;;;;;;;0.3;0.3;;;;;;;16.3;100.0;101840;;;;
2022/08/31 03:56:02;;;;;;;0.3;0.3;;;;;;;16.3;100.0;101840;;;;
2022/08/31 03:57:00;;;;;;;0.3;0.3;;;;;;;16.4;100.0;101840;;;;
2022/08/31 03:58:00;;;;;;;0.3;0.3;;;;;;;16.4;100.0;101840;;;;
2022/08/31 03:59:00;;;;;;;0.3;0.3;;;;;;;16.3;100.0;101840;;;;
2022/08/31 04:00:00;;;;;;;0.3;0.3;;;;;;;16.3;100.0;101840;;;;
2022/08/31 04:01:00;;;;;;;0.3;0.3;;;;;;;16.3;100.0;101840;;;;
2022/08/31 04:02:00;;;;;;;0.3;0.3;;;;;;;16.3;100.0;101840;;;;
2022/08/31 04:03:00;;;;;;;0.3;0.3;;;;;;;16.1;100.0;101840;;;;
2022/08/31 04:04:00;;;;;;;0.3;0.3;;;;;;;16.1;100.0;101840;;;;
2022/08/31 04:05:00;;;;;;;0.3;0.3;;;;;;;16.1;100.0;101840;;;;
2022/08/31 04:06:00;;;;;;;0.3;0.3;;;;;;;16.1;100.0;101840;;;;
2022/08/31 04:07:00;;;;;;;0.3;0.3;;;;;;;16.2;100.0;101840;;;;
2022/08/31 04:08:00;;;;;;;0.3;0.3;;;;;;;16.2;100.0;101840;;;;
2022/08/31 04:09:00;;;;;;;0.3;0.3;;;;;;;16.2;100.0;101840;;;;
2022/08/31 04:10:00;;;;;;;0.3;0.3;;;;;;;16.2;100.0;101840;;;;
2022/08/31 04:11:04;;;;;;;0.3;0.3;;;;;;;16.3;100.0;101840;;;;
2022/08/31 04:12:00;;;;;;;0.3;0.3;;;;;;;16.3;100.0;101840;;;;
2022/08/31 04:13:00;;;;;;;0.3;0.3;;;;;;;16.2;100.0;101850;;;;
2022/08/31 04:14:00;;;;;;;0.3;0.3;;;;;;;16.2;100.0;101850;;;;
2022/08/31 04:15:01;;;;;;;0.3;0.3;;;;;;;16.2;100.0;101840;;;;
2022/08/31 04:16:00;;;;;;;0.3;0.3;;;;;;;16.2;100.0;101840;;;;
2022/08/31 04:17:00;;;;;;;0.3;0.3;;;;;;;16.2;100.0;101840;;;;
2022/08/31 04:18:00;;;;;;;0.3;0.3;;;;;;;16.2;100.0;101840;;;;
2022/08/31 04:19:01;;;;;;;0.3;0.3;;;;;;;16.1;100.0;101850;;;;
2022/08/31 04:20:00;;;;;;;0.4;0.4;;;;;;;16.1;100.0;101850;;;;
2022/08/31 04:21:00;;;;;;;0.4;0.4;;;;;;;16.0;100.0;101850;;;;
2022/08/31 04:22:00;;;;;;;0.4;0.4;;;;;;;16.0;100.0;101850;;;;
2022/08/31 04:23:00;;;;;;;0.4;0.4;;;;;;;15.9;100.0;101850;;;;
2022/08/31 04:24:00;;;;;;;0.4;0.4;;;;;;;15.9;100.0;101850;;;;
2022/08/31 04:25:00;;;;;;;0.4;0.4;;;;;;;16.0;100.0;101850;;;;
2022/08/31 04:26:00;;;;;;;0.4;0.4;;;;;;;16.0;100.0;101850;;;;
2022/08/31 04:27:00;;;;;;;0.4;0.4;;;;;;;15.9;100.0;101850;;;;
2022/08/31 04:28:03;;;;;;;0.4;0.4;;;;;;;15.9;100.0;101850;;;;
2022/08/31 04:29:00;;;;;;;0.4;0.4;;;;;;;15.9;100.0;101850;;;;
2022/08/31 04:30:00;;;;;;;0.4;0.4;;;;;;;15.9;100.0;101850;;;;
2022/08/31 04:31:07;;;;;;;0.4;0.4;;;;;;;15.8;100.0;101850;;;;
2022/08/31 04:32:00;;;;;;;0.4;0.4;;;;;;;15.8;100.0;101850;;;;
2022/08/31 04:33:00;;;;;;;0.4;0.4;;;;;;;15.9;100.0;101850;;;;
2022/08/31 04:34:00;;;;;;;0.4;0.4;;;;;;;15.9;100.0;101850;;;;
2022/08/31 04:35:00;;;;;;;0.4;0.4;;;;;;;15.8;100.0;101850;;;;
2022/08/31 04:36:03;;;;;;;0.4;0.4;;;;;;;15.8;100.0;101850;;;;
2022/08/31 04:37:00;;;;;;;0.4;0.4;;;;;;;15.8;100.0;101850;;;;
2022/08/31 04:38:01;;;;;;;0.4;0.4;;;;;;;15.8;100.0;101850;;;;
2022/08/31 04:39:02;;;;;;;0.4;0.4;;;;;;;15.7;100.0;101860;;;;
2022/08/31 04:40:02;;;;;;;0.3;0.3;;;;;;;15.7;100.0;101860;;;;
2022/08/31 04:41:04;;;;;;;0.3;0.3;;;;;;;15.7;100.0;101860;;;;
2022/08/31 04:42:00;;;;;;;0.3;0.3;;;;;;;15.7;100.0;101860;;;;
2022/08/31 04:43:00;;;;;;;0.3;0.3;;;;;;;15.7;100.0;101850;;;;
2022/08/31 04:44:00;;;;;;;0.3;0.3;;;;;;;15.7;100.0;101850;;;;
2022/08/31 04:45:00;;;;;;;0.3;0.3;;;;;;;15.7;100.0;101850;;;;
2022/08/31 04:46:01;;;;;;;0.3;0.3;;;;;;;15.7;100.0;101850;;;;
2022/08/31 04:47:00;;;;;;;0.3;0.3;;;;;;;15.8;100.0;101860;;;;
2022/08/31 04:48:00;;;;;;;0.3;0.3;;;;;;;15.8;100.0;101860;;;;
2022/08/31 04:49:00;;;;;;;0.3;0.3;;;;;;;15.5;100.0;101860;;;;
2022/08/31 04:50:00;;;;;;;0.3;0.3;;;;;;;15.5;100.0;101860;;;;
2022/08/31 04:51:01;;;;;;;0.3;0.3;;;;;;;15.5;100.0;101850;;;;
2022/08/31 04:52:03;;;;;;;0.3;0.3;;;;;;;15.5;100.0;101850;;;;
2022/08/31 04:53:04;;;;;;;0.3;0.3;;;;;;;15.6;100.0;101850;;;;
2022/08/31 04:54:01;;;;;;;0.3;0.3;;;;;;;15.6;100.0;101850;;;;
2022/08/31 04:55:00;;;;;;;0.3;0.3;;;;;;;15.6;100.0;101860;;;;
2022/08/31 04:56:02;;;;;;;0.3;0.3;;;;;;;15.6;100.0;101860;;;;
2022/08/31 04:57:00;;;;;;;0.3;0.3;;;;;;;15.7;100.0;101850;;;;
2022/08/31 04:58:00;;;;;;;0.3;0.3;;;;;;;15.7;100.0;101850;;;;
2022/08/31 04:59:02;;;;;;;0.3;0.3;;;;;;;15.6;100.0;101860;;;;
2022/08/31 05:00:00;;;;;;;0.4;0.4;;;;;;;15.6;100.0;101860;;;;
2022/08/31 05:01:00;;;;;;;0.4;0.4;;;;;;;15.6;100.0;101860;;;;
2022/08/31 05:02:00;;;;;;;0.4;0.4;;;;;;;15.6;100.0;101860;;;;
2022/08/31 05:03:00;;;;;;;0.4;0.4;;;;;;;15.4;100.0;101860;;;;
2022/08/31 05:04:00;;;;;;;0.4;0.4;;;;;;;15.4;100.0;101860;;;;
2022/08/31 05:05:00;;;;;;;0.4;0.4;;;;;;;15.4;100.0;101860;;;;
2022/08/31 05:06:00;;;;;;;0.4;0.4;;;;;;;15.4;100.0;101860;;;;
2022/08/31 05:07:00;;;;;;;0.4;0.4;;;;;;;15.6;100.0;101860;;;;
2022/08/31 05:08:00;;;;;;;0.4;0.4;;;;;;;15.6;100.0;101860;;;;
2022/08/31 05:09:01;;;;;;;0.4;0.4;;;;;;;15.5;100.0;101860;;;;
2022/08/31 05:10:00;;;;;;;0.4;0.4;;;;;;;15.5;100.0;101860;;;;
2022/08/31 05:11:06;;;;;;;0.4;0.4;;;;;;;15.5;100.0;101870;;;;
2022/08/31 05:12:00;;;;;;;0.4;0.4;;;;;;;15.5;100.0;101870;;;;
2022/08/31 05:13:01;;;;;;;0.4;0.4;;;;;;;15.4;100.0;101860;;;;
2022/08/31 05:14:00;;;;;;;0.4;0.4;;;;;;;15.4;100.0;101860;;;;
2022/08/31 05:15:00;;;;;;;0.4;0.4;;;;;;;15.4;100.0;101870;;;;
2022/08/31 05:16:02;;;;;;;0.4;0.4;;;;;;;15.4;100.0;101870;;;;
2022/08/31 05:17:00;;;;;;;0.4;0.4;;;;;;;15.4;100.0;101860;;;;
2022/08/31 05:18:00;;;;;;;0.4;0.4;;;;;;;15.4;100.0;101860;;;;
2022/08/31 05:19:00;;;;;;;0.4;0.4;;;;;;;15.4;100.0;101860;;;;
2022/08/31 05:20:00;;;;;;;0.4;0.4;;;;;;;15.4;100.0;101860;;;;
2022/08/31 05:21:08;;;;;;;0.4;0.4;;;;;;;15.5;100.0;101870;;;;
2022/08/31 05:22:00;;;;;;;0.4;0.4;;;;;;;15.5;100.0;101870;;;;
2022/08/31 05:23:00;;;;;;;0.4;0.4;;;;;;;15.5;100.0;101870;;;;
2022/08/31 05:24:02;;;;;;;0.4;0.4;;;;;;;15.5;100.0;101870;;;;
2022/08/31 05:25:00;;;;;;;0.4;0.4;;;;;;;15.4;100.0;101870;;;;
2022/08/31 05:26:00;;;;;;;0.4;0.4;;;;;;;15.4;100.0;101870;;;;
2022/08/31 05:27:01;;;;;;;0.4;0.4;;;;;;;15.4;100.0;101860;;;;
2022/08/31 05:28:00;;;;;;;0.4;0.4;;;;;;;15.4;100.0;101860;;;;
2022/08/31 05:29:01;;;;;;;0.4;0.4;;;;;;;15.4;100.0;101870;;;;
2022/08/31 05:30:00;;;;;;;0.4;0.4;;;;;;;15.4;100.0;101870;;;;
2022/08/31 05:31:00;;;;;;;0.4;0.4;;;;;;;15.3;100.0;101870;;;;
2022/08/31 05:32:00;;;;;;;0.4;0.4;;;;;;;15.3;100.0;101870;;;;
2022/08/31 05:33:00;;;;;;;0.4;0.4;;;;;;;15.3;100.0;101870;;;;
2022/08/31 05:34:00;;;;;;;0.4;0.4;;;;;;;15.3;100.0;101870;;;;
2022/08/31 05:35:00;;;;;;;0.4;0.4;;;;;;;15.3;100.0;101870;;;;
2022/08/31 05:36:01;;;;;;;0.4;0.4;;;;;;;15.3;100.0;101870;;;;
2022/08/31 05:37:00;;;;;;;0.4;0.4;;;;;;;15.2;100.0;101880;;;;
2022/08/31 05:38:00;;;;;;;0.4;0.4;;;;;;;15.2;100.0;101880;;;;
2022/08/31 05:39:01;;;;;;;0.4;0.4;;;;;;;15.2;100.0;101870;;;;
2022/08/31 05:40:00;;;;;;;0.5;0.5;;;;;;;15.2;100.0;101870;;;;
2022/08/31 05:41:00;;;;;;;0.5;0.5;;;;;;;15.2;100.0;101870;;;;
2022/08/31 05:42:00;;;;;;;0.5;0.5;;;;;;;15.2;100.0;101870;;;;
2022/08/31 05:43:00;;;;;;;0.5;0.5;;;;;;;15.4;100.0;101870;;;;
2022/08/31 05:44:01;;;;;;;0.5;0.5;;;;;;;15.4;100.0;101870;;;;
2022/08/31 05:45:00;;;;;;;0.5;0.5;;;;;;;15.6;100.0;101880;;;;
2022/08/31 05:46:00;;;;;;;0.5;0.5;;;;;;;15.6;100.0;101880;;;;
2022/08/31 05:47:04;;;;;;;0.5;0.5;;;;;;;15.5;100.0;101880;;;;
2022/08/31 05:48:00;;;;;;;0.5;0.5;;;;;;;15.5;100.0;101880;;;;
2022/08/31 05:49:01;;;;;;;0.5;0.5;;;;;;;15.4;100.0;101880;;;;
2022/08/31 05:50:00;;;;;;;0.5;0.5;;;;;;;15.4;100.0;101880;;;;
2022/08/31 05:51:01;;;;;;;0.5;0.5;;;;;;;15.6;100.0;101880;;;;
2022/08/31 05:52:00;;;;;;;0.5;0.5;;;;;;;15.6;100.0;101880;;;;
2022/08/31 05:53:00;;;;;;;0.5;0.5;;;;;;;15.5;100.0;101880;;;;
2022/08/31 05:54:00;;;;;;;0.5;0.5;;;;;;;15.5;100.0;101880;;;;
2022/08/31 05:55:00;;;;;;;0.5;0.5;;;;;;;15.6;100.0;101880;;;;
2022/08/31 05:56:01;;;;;;;0.5;0.5;;;;;;;15.6;100.0;101880;;;;
2022/08/31 05:57:01;;;;;;;0.5;0.5;;;;;;;15.4;100.0;101880;;;;
2022/08/31 05:58:00;;;;;;;0.5;0.5;;;;;;;15.4;100.0;101880;;;;
2022/08/31 05:59:00;;;;;;;0.5;0.5;;;;;;;15.4;100.0;101880;;;;
2022/08/31 06:00:00;;;;;;;0.4;0.4;;;;;;;15.4;100.0;101880;;;;
2022/08/31 06:01:00;;;;;;;0.4;0.4;;;;;;;15.2;100.0;101890;;;;
2022/08/31 06:02:00;;;;;;;0.4;0.4;;;;;;;15.2;100.0;101890;;;;
2022/08/31 06:03:00;;;;;;;0.4;0.4;;;;;;;15.3;100.0;101890;;;;
2022/08/31 06:04:00;;;;;;;0.4;0.4;;;;;;;15.3;100.0;101890;;;;
2022/08/31 06:05:00;;;;;;;0.4;0.4;;;;;;;15.4;100.0;101890;;;;
2022/08/31 06:06:01;;;;;;;0.4;0.4;;;;;;;15.4;100.0;101890;;;;
2022/08/31 06:07:00;;;;;;;0.4;0.4;;;;;;;15.4;100.0;101890;;;;
2022/08/31 06:08:00;;;;;;;0.4;0.4;;;;;;;15.4;100.0;101890;;;;
2022/08/31 06:09:00;;;;;;;0.4;0.4;;;;;;;15.5;100.0;101890;;;;
2022/08/31 06:10:00;;;;;;;0.4;0.4;;;;;;;15.5;100.0;101890;;;;
2022/08/31 06:11:00;;;;;;;0.4;0.4;;;;;;;15.5;100.0;101890;;;;
2022/08/31 06:12:00;;;;;;;0.4;0.4;;;;;;;15.5;100.0;101890;;;;
2022/08/31 06:13:01;;;;;;;0.4;0.4;;;;;;;15.5;100.0;101890;;;;
2022/08/31 06:14:01;;;;;;;0.4;0.4;;;;;;;15.5;100.0;101890;;;;
2022/08/31 06:15:04;;;;;;;0.4;0.4;;;;;;;15.6;100.0;101890;;;;
2022/08/31 06:16:01;;;;;;;0.4;0.4;;;;;;;15.6;100.0;101890;;;;
2022/08/31 06:17:00;;;;;;;0.4;0.4;;;;;;;15.6;100.0;101890;;;;
2022/08/31 06:18:00;;;;;;;0.4;0.4;;;;;;;15.6;100.0;101890;;;;
2022/08/31 06:19:02;;;;;;;0.4;0.4;;;;;;;15.5;100.0;101890;;;;
2022/08/31 06:20:00;;;;;;;0.4;0.4;;;;;;;15.5;100.0;101890;;;;
2022/08/31 06:21:06;;;;;;;0.4;0.4;;;;;;;15.6;100.0;101890;;;;
2022/08/31 06:22:00;;;;;;;0.4;0.4;;;;;;;15.6;100.0;101890;;;;
2022/08/31 06:23:02;;;;;;;0.4;0.4;;;;;;;15.7;100.0;101890;;;;
2022/08/31 06:24:02;;;;;;;0.4;0.4;;;;;;;15.7;100.0;101890;;;;
2022/08/31 06:25:00;;;;;;;0.4;0.4;;;;;;;15.4;100.0;101890;;;;
2022/08/31 06:26:01;;;;;;;0.4;0.4;;;;;;;15.4;100.0;101890;;;;